Time;durP1;ratioP1;P1;durP2;ratioP2;P2;SDS_P1;SDS_P2;PMS_P1;PMS_P2;Temp;Humidity;BMP_temperature;BMP_pressure;BME280_temperature;BME280_humidity;BME280_pressure;Samples;Min_cycle;Max_cycle;Signal;HPM_P1;HPM_P2
2022/11/10 00:00:59;;;;;;;;;;;;;;;18.97;49.27;95781.50;6123324;19;1843;-68
2022/11/10 00:03:03;;;;;;;;;;;;;;;18.97;49.21;95780.66;6124810;19;2112;-68
2022/11/10 00:05:10;;;;;;;;;;;;;;;18.98;48.97;95782.34;6122521;19;1017;-69
2022/11/10 00:07:13;;;;;;;;;;;;;;;18.97;48.98;95776.16;6115807;19;1083;-67
2022/11/10 00:09:17;;;;;;;;;;;;;;;18.96;49.33;95774.53;6109408;19;1917;-69
2022/11/10 00:11:20;;;;;;;;;;;;;;;18.97;49.21;95776.16;6124722;19;1942;-68
2022/11/10 00:13:24;;;;;;;;;;;;;;;18.96;49.13;95774.53;6123648;19;1937;-67
2022/11/10 00:17:41;;;;;;;;;;;;;;;18.96;49.02;95774.53;6124816;19;1950;-68
2022/11/10 00:19:44;;;;;;;;;;;;;;;18.96;49.22;95779.84;6100445;19;2154;-68
2022/11/10 00:21:50;;;;;;;;;;;;;;;18.95;49.27;95778.22;6121824;19;2096;-69
2022/11/10 00:23:53;;;;;;;;;;;;;;;18.94;49.13;95776.53;6124137;19;2495;-67
2022/11/10 00:25:56;;;;;;;;;;;;;;;18.95;49.13;95780.88;6126041;19;1697;-68
2022/11/10 00:28:00;;;;;;;;;;;;;;;18.95;49.14;95780.88;6125634;19;1854;-68
2022/11/10 00:30:03;;;;;;;;;;;;;;;18.95;48.80;95778.22;6125213;19;2127;-68
2022/11/10 00:32:06;;;;;;;;;;;;;;;18.93;49.25;95780.22;6100011;19;1692;-68
2022/11/10 00:34:12;;;;;;;;;;;;;;;18.93;49.43;95779.41;6123874;19;1864;-68
2022/11/10 00:36:16;;;;;;;;;;;;;;;18.93;49.05;95777.56;6125974;19;2022;-67
2022/11/10 00:38:22;;;;;;;;;;;;;;;18.92;49.28;95775.91;6123224;19;3053;-68
2022/11/10 00:40:25;;;;;;;;;;;;;;;18.93;49.35;95777.56;6125591;19;2039;-68
2022/11/10 00:42:28;;;;;;;;;;;;;;;18.93;49.22;95777.56;6100318;19;2110;-68
2022/11/10 00:44:31;;;;;;;;;;;;;;;18.94;49.18;95776.53;6125104;19;2088;-67
2022/11/10 00:46:35;;;;;;;;;;;;;;;18.94;48.89;95771.22;6124655;19;2027;-67
2022/11/10 00:48:38;;;;;;;;;;;;;;;18.92;48.83;95767.91;6123465;19;1869;-68
2022/11/10 00:50:41;;;;;;;;;;;;;;;18.93;49.36;95763.41;6123423;19;2516;-68
2022/11/10 00:52:45;;;;;;;;;;;;;;;18.91;49.54;95758.25;6125221;19;2009;-68
2022/11/10 00:54:51;;;;;;;;;;;;;;;18.92;49.16;95762.59;6101615;19;2143;-68
2022/11/10 00:56:54;;;;;;;;;;;;;;;18.92;49.49;95762.59;6123459;19;2119;-68
2022/11/10 00:58:57;;;;;;;;;;;;;;;18.91;49.55;95763.59;6123999;19;2004;-68
2022/11/10 01:01:04;;;;;;;;;;;;;;;18.91;49.40;95760.09;6123917;19;1874;-68
2022/11/10 01:03:07;;;;;;;;;;;;;;;18.91;49.55;95755.59;6121770;19;1744;-68
2022/11/10 01:05:11;;;;;;;;;;;;;;;18.93;49.34;95760.75;6105100;19;2203;-67
2022/11/10 01:07:14;;;;;;;;;;;;;;;18.92;49.31;95762.59;6123548;19;2183;-68
2022/11/10 01:09:17;;;;;;;;;;;;;;;18.92;49.40;95762.59;6123048;19;2103;-67
2022/11/10 01:11:26;;;;;;;;;;;;;;;18.92;49.29;95756.41;6120561;19;1357;-68
2022/11/10 01:13:29;;;;;;;;;;;;;;;18.92;49.07;95759.94;6124168;19;1904;-67
2022/11/10 01:15:32;;;;;;;;;;;;;;;18.92;49.42;95759.94;6123871;19;1866;-69
2022/11/10 01:17:36;;;;;;;;;;;;;;;18.92;49.61;95745.75;6100419;19;2663;-67
2022/11/10 01:19:39;;;;;;;;;;;;;;;18.92;49.27;95757.28;6123645;19;1748;-68
2022/11/10 01:21:42;;;;;;;;;;;;;;;18.92;49.53;95751.09;6122850;19;2044;-68
2022/11/10 01:23:46;;;;;;;;;;;;;;;18.91;49.08;95755.59;6124614;19;2123;-68
2022/11/10 01:25:49;;;;;;;;;;;;;;;18.91;49.56;95750.28;6120021;19;1634;-67
2022/11/10 01:27:55;;;;;;;;;;;;;;;18.89;49.52;95749.63;6112949;19;1876;-68
2022/11/10 01:29:58;;;;;;;;;;;;;;;18.90;49.81;95756.63;6114402;19;1872;-68
2022/11/10 01:32:02;;;;;;;;;;;;;;;18.91;49.70;95752.13;6120523;19;1904;-68
2022/11/10 01:34:05;;;;;;;;;;;;;;;18.91;49.53;95744.13;6121235;19;1995;-68
2022/11/10 01:36:09;;;;;;;;;;;;;;;18.90;49.23;95748.63;6121147;19;2090;-68
2022/11/10 01:38:12;;;;;;;;;;;;;;;18.92;49.62;95754.59;6123710;19;1831;-68
2022/11/10 01:40:16;;;;;;;;;;;;;;;18.92;49.26;95751.09;6097664;19;1476;-68
2022/11/10 01:42:24;;;;;;;;;;;;;;;18.92;49.56;95741.28;6119389;19;1853;-69
2022/11/10 01:44:30;;;;;;;;;;;;;;;18.91;49.17;95742.28;6121818;19;2042;-69
2022/11/10 01:46:33;;;;;;;;;;;;;;;18.91;49.13;95744.94;6123502;19;1738;-67
2022/11/10 01:48:39;;;;;;;;;;;;;;;18.91;49.20;95744.94;6121826;19;1962;-68
2022/11/10 01:50:43;;;;;;;;;;;;;;;18.91;49.02;95744.13;6105780;19;1925;-67
2022/11/10 01:52:48;;;;;;;;;;;;;;;18.91;49.36;95744.94;6120248;19;2113;-68
2022/11/10 01:54:52;;;;;;;;;;;;;;;18.90;49.31;95745.97;6122373;19;1900;-69
2022/11/10 01:56:57;;;;;;;;;;;;;;;18.91;49.29;95744.13;6121720;19;1991;-68
2022/11/10 01:59:02;;;;;;;;;;;;;;;18.91;49.44;95752.13;6124291;19;2031;-68
2022/11/10 02:01:08;;;;;;;;;;;;;;;18.90;49.11;95748.63;6121670;19;1940;-68
2022/11/10 02:03:15;;;;;;;;;;;;;;;18.90;49.28;95742.47;6097733;19;1863;-69
2022/11/10 02:05:18;;;;;;;;;;;;;;;18.91;48.92;95749.44;6122114;19;1932;-67
2022/11/10 02:07:23;;;;;;;;;;;;;;;18.89;49.04;95752.28;6123339;19;2041;-68
2022/11/10 02:09:27;;;;;;;;;;;;;;;18.89;49.26;95751.47;6123600;19;2186;-68
2022/11/10 02:11:30;;;;;;;;;;;;;;;18.89;49.46;95741.63;6122265;19;1780;-68
2022/11/10 02:13:34;;;;;;;;;;;;;;;18.89;49.44;95748.78;6098573;19;2087;-67
2022/11/10 02:15:37;;;;;;;;;;;;;;;18.89;49.48;95752.28;6121231;19;1895;-68
2022/11/10 02:17:43;;;;;;;;;;;;;;;18.88;49.69;95750.63;6121451;19;1902;-67
2022/11/10 02:19:46;;;;;;;;;;;;;;;18.88;49.68;95749.81;6118516;19;2111;-68
2022/11/10 02:21:52;;;;;;;;;;;;;;;18.87;49.46;95748.19;6120016;19;2006;-68
2022/11/10 02:23:56;;;;;;;;;;;;;;;18.88;49.45;95747.97;6121534;19;1735;-69
2022/11/10 02:25:59;;;;;;;;;;;;;;;18.88;49.22;95747.97;6097697;19;1888;-66
2022/11/10 02:28:03;;;;;;;;;;;;;;;18.88;49.58;95757.81;6120969;19;1848;-65
2022/11/10 02:30:06;;;;;;;;;;;;;;;18.87;49.17;95759.66;6119917;19;1931;-65
2022/11/10 02:32:10;;;;;;;;;;;;;;;18.88;49.21;95760.47;6118113;19;2385;-66
2022/11/10 02:34:13;;;;;;;;;;;;;;;18.88;49.60;95765.78;6118855;19;1818;-67
2022/11/10 02:36:16;;;;;;;;;;;;;;;18.88;49.14;95761.28;6098850;19;1960;-66
2022/11/10 02:38:22;;;;;;;;;;;;;;;18.87;49.30;95759.66;6120502;19;2067;-65
2022/11/10 02:40:26;;;;;;;;;;;;;;;18.88;49.22;95766.63;6121077;19;1775;-65
2022/11/10 02:42:29;;;;;;;;;;;;;;;18.89;49.42;95762.13;6119181;19;2123;-69
2022/11/10 02:44:33;;;;;;;;;;;;;;;18.88;49.43;95763.94;6121134;19;2105;-70
2022/11/10 02:46:38;;;;;;;;;;;;;;;18.90;49.52;95769.94;6120110;19;2185;-71
2022/11/10 02:48:41;;;;;;;;;;;;;;;18.91;49.28;95763.59;6095706;19;2014;-68
2022/11/10 02:50:44;;;;;;;;;;;;;;;18.91;49.02;95771.56;6121591;19;2095;-68
2022/11/10 02:52:48;;;;;;;;;;;;;;;18.90;48.84;95769.94;6120339;19;1947;-68
2022/11/10 02:54:53;;;;;;;;;;;;;;;18.90;48.72;95772.59;6121828;19;2181;-70
2022/11/10 02:56:57;;;;;;;;;;;;;;;18.89;48.72;95768.25;6121795;19;1945;-68
2022/11/10 02:59:00;;;;;;;;;;;;;;;18.90;48.70;95774.44;6098087;19;2174;-67
2022/11/10 03:01:05;;;;;;;;;;;;;;;18.89;48.91;95778.91;6120746;19;2017;-69
2022/11/10 03:03:09;;;;;;;;;;;;;;;18.89;49.19;95775.44;6119619;19;1779;-68
2022/11/10 03:05:12;;;;;;;;;;;;;;;18.88;48.87;95774.59;6118799;19;1772;-68
2022/11/10 03:07:15;;;;;;;;;;;;;;;18.89;48.96;95772.75;6121794;19;2124;-68
2022/11/10 03:09:19;;;;;;;;;;;;;;;18.89;49.04;95778.91;6121653;19;1927;-69
2022/11/10 03:11:25;;;;;;;;;;;;;;;18.88;48.92;95771.94;6095567;19;2126;-68
2022/11/10 03:13:29;;;;;;;;;;;;;;;18.88;49.18;95779.94;6119632;19;2063;-69
2022/11/10 03:15:33;;;;;;;;;;;;;;;18.88;48.79;95779.09;6118254;19;1991;-69
2022/11/10 03:17:36;;;;;;;;;;;;;;;18.87;48.83;95778.28;6119992;19;1942;-69
2022/11/10 03:19:39;;;;;;;;;;;;;;;18.85;49.10;95777.63;6121862;19;2081;-68
2022/11/10 03:21:43;;;;;;;;;;;;;;;18.84;49.33;95781.31;6097200;19;1908;-68
2022/11/10 03:23:46;;;;;;;;;;;;;;;18.83;49.40;95782.31;6118930;19;2048;-68
2022/11/10 03:25:49;;;;;;;;;;;;;;;18.83;49.43;95784.97;6120504;19;1912;-68
2022/11/10 03:27:55;;;;;;;;;;;;;;;18.85;49.15;95782.97;6120966;19;1801;-68
2022/11/10 03:29:59;;;;;;;;;;;;;;;18.84;49.06;95776.00;6118997;19;1996;-68
2022/11/10 03:32:02;;;;;;;;;;;;;;;18.84;49.14;95783.97;6119455;19;1910;-69
2022/11/10 03:34:05;;;;;;;;;;;;;;;18.84;49.32;95783.97;6096131;19;2086;-69
2022/11/10 03:36:09;;;;;;;;;;;;;;;18.84;49.53;95781.31;6119765;19;1960;-68
2022/11/10 03:38:12;;;;;;;;;;;;;;;18.85;49.51;95790.13;6120522;19;1782;-68
2022/11/10 03:40:15;;;;;;;;;;;;;;;18.85;49.06;95790.94;6120100;19;1803;-68
2022/11/10 03:42:19;;;;;;;;;;;;;;;18.85;49.23;95788.28;6118404;19;1850;-68
2022/11/10 03:44:25;;;;;;;;;;;;;;;18.84;49.31;95783.97;6107838;19;2264;-69
2022/11/10 03:46:29;;;;;;;;;;;;;;;18.80;49.61;95790.66;6115454;19;1888;-70
2022/11/10 03:48:32;;;;;;;;;;;;;;;18.84;49.08;95788.47;6119204;19;1935;-68
2022/11/10 03:50:35;;;;;;;;;;;;;;;18.86;49.13;95787.25;6117909;19;1634;-69
2022/11/10 03:52:40;;;;;;;;;;;;;;;18.86;49.58;95794.44;6117893;19;1821;-69
2022/11/10 03:54:43;;;;;;;;;;;;;;;18.87;49.67;95793.44;6118995;19;1739;-69
2022/11/10 03:56:47;;;;;;;;;;;;;;;18.87;49.75;95794.25;6094000;19;1944;-70
2022/11/10 03:58:50;;;;;;;;;;;;;;;18.87;49.33;95791.59;6119055;19;1947;-70
2022/11/10 04:00:57;;;;;;;;;;;;;;;18.87;49.59;95791.59;6119093;19;1852;-67
2022/11/10 04:03:00;;;;;;;;;;;;;;;18.88;49.27;95798.56;6119476;19;1838;-64
2022/11/10 04:09:35;;;;;;;;;;;;;;;18.59;46.01;95795.84;6122826;19;1981;-68
2022/11/10 04:16:12;;;;;;;;;;;;;;;17.76;40.94;95792.13;6126464;19;1154;-68
2022/11/10 04:18:23;;;;;;;;;;;;;;;17.69;41.03;95807.06;6115498;19;1922;-68
2022/11/10 04:20:26;;;;;;;;;;;;;;;17.71;40.76;95797.91;6112814;19;2145;-68
2022/11/10 04:24:45;;;;;;;;;;;;;;;17.56;40.09;95803.13;6119771;19;1939;-69
2022/11/10 04:26:49;;;;;;;;;;;;;;;17.51;39.65;95800.16;6125797;19;1783;-69
2022/11/10 04:28:53;;;;;;;;;;;;;;;17.47;39.68;95812.16;6124389;19;1706;-69
2022/11/10 04:30:56;;;;;;;;;;;;;;;17.41;38.53;95811.00;6101920;19;2194;-69
2022/11/10 04:33:02;;;;;;;;;;;;;;;17.32;38.70;95812.00;6122643;19;2028;-68
2022/11/10 04:35:05;;;;;;;;;;;;;;;17.29;38.33;95811.53;6126486;19;1966;-69
2022/11/10 04:37:09;;;;;;;;;;;;;;;17.44;39.58;95812.47;6126486;19;2009;-68
2022/11/10 04:39:12;;;;;;;;;;;;;;;17.61;40.56;95808.75;6124577;19;1745;-63
2022/11/10 04:41:16;;;;;;;;;;;;;;;17.78;41.25;95814.81;6114974;19;1633;-63
2022/11/10 04:43:19;;;;;;;;;;;;;;;17.91;41.73;95814.28;6108760;19;1964;-64
2022/11/10 04:45:23;;;;;;;;;;;;;;;18.01;41.68;95812.22;6124222;19;1868;-62
2022/11/10 04:47:26;;;;;;;;;;;;;;;18.09;42.14;95817.47;6124607;19;1737;-62
2022/11/10 04:49:32;;;;;;;;;;;;;;;18.14;42.14;95811.63;6125345;19;1649;-64
2022/11/10 04:51:36;;;;;;;;;;;;;;;18.19;42.33;95809.28;6125357;19;1827;-64
2022/11/10 04:53:39;;;;;;;;;;;;;;;18.24;42.51;95822.03;6100096;19;2017;-68
2022/11/10 04:55:43;;;;;;;;;;;;;;;18.25;42.64;95816.53;6121112;19;2025;-67
2022/11/10 04:57:46;;;;;;;;;;;;;;;18.30;43.19;95826.66;6122275;19;2175;-67
2022/11/10 04:59:50;;;;;;;;;;;;;;;18.31;43.07;95817.66;6122324;19;2189;-67
2022/11/10 05:01:54;;;;;;;;;;;;;;;18.32;43.23;95814.00;6122630;19;2100;-66
2022/11/10 05:03:58;;;;;;;;;;;;;;;18.34;43.34;95819.97;6113095;19;1989;-67
2022/11/10 05:06:04;;;;;;;;;;;;;;;18.36;43.22;95815.31;6111222;19;1727;-67
2022/11/10 05:08:07;;;;;;;;;;;;;;;18.38;43.43;95823.09;6122876;19;1753;-67
2022/11/10 05:10:11;;;;;;;;;;;;;;;18.40;43.52;95816.59;6120192;19;1912;-66
2022/11/10 05:12:15;;;;;;;;;;;;;;;18.41;43.73;95817.41;6123933;19;2090;-66
2022/11/10 05:14:18;;;;;;;;;;;;;;;18.41;43.67;95822.72;6121439;19;2122;-67
2022/11/10 05:16:21;;;;;;;;;;;;;;;18.41;43.79;95815.59;6099037;19;1915;-66
2022/11/10 05:18:25;;;;;;;;;;;;;;;18.43;43.59;95826.88;6121763;19;1714;-67
2022/11/10 05:20:28;;;;;;;;;;;;;;;18.42;43.60;95825.22;6120390;19;1940;-66
2022/11/10 05:22:34;;;;;;;;;;;;;;;18.42;44.15;95822.56;6121464;19;1846;-66
2022/11/10 05:24:35;;;;;;;;;;;;;;;18.42;43.75;95829.72;6121596;19;1491;-66
2022/11/10 05:26:39;;;;;;;;;;;;;;;18.43;43.76;95828.72;6119664;19;1044;-66
2022/11/10 05:28:43;;;;;;;;;;;;;;;18.44;43.72;95827.69;6097155;19;1314;-66
2022/11/10 05:30:46;;;;;;;;;;;;;;;18.44;43.78;95833.88;6119127;19;1117;-66
2022/11/10 05:32:49;;;;;;;;;;;;;;;18.43;43.89;95832.19;6117877;19;1291;-66
2022/11/10 05:34:53;;;;;;;;;;;;;;;18.43;44.14;95837.53;6119763;19;1050;-66
2022/11/10 05:36:56;;;;;;;;;;;;;;;18.44;43.89;95831.22;6119720;19;964;-66
2022/11/10 05:39:02;;;;;;;;;;;;;;;18.43;44.38;95832.19;6096494;19;1626;-66
2022/11/10 05:41:05;;;;;;;;;;;;;;;18.43;44.38;95832.19;6119625;19;1096;-66
2022/11/10 05:43:09;;;;;;;;;;;;;;;18.44;44.37;95838.34;6116545;19;1813;-66
2022/11/10 05:45:12;;;;;;;;;;;;;;;18.44;44.00;95839.19;6116311;19;1067;-66
2022/11/10 05:47:15;;;;;;;;;;;;;;;18.43;44.44;95836.69;6116969;19;1022;-66
2022/11/10 05:49:19;;;;;;;;;;;;;;;18.44;44.35;95847.19;6116706;19;1029;-66
2022/11/10 05:51:22;;;;;;;;;;;;;;;18.44;44.32;95843.66;6094052;19;1609;-66
2022/11/10 05:53:25;;;;;;;;;;;;;;;18.43;44.32;95840.19;6116239;19;1743;-66
2022/11/10 05:55:31;;;;;;;;;;;;;;;18.42;44.05;95846.53;6116537;19;1127;-66
2022/11/10 05:57:35;;;;;;;;;;;;;;;18.43;44.53;95853.50;6117711;19;1303;-66
2022/11/10 05:59:38;;;;;;;;;;;;;;;18.43;44.51;95850.81;6118937;19;958;-66
2022/11/10 06:01:41;;;;;;;;;;;;;;;18.43;44.15;95848.16;6097487;19;1411;-67
2022/11/10 06:03:45;;;;;;;;;;;;;;;18.43;44.39;95850.81;6117669;19;1831;-67
2022/11/10 06:05:48;;;;;;;;;;;;;;;18.43;44.25;95850.00;6119481;19;1053;-67
2022/11/10 06:07:51;;;;;;;;;;;;;;;18.43;44.63;95852.66;6118662;19;1057;-67
2022/11/10 06:09:54;;;;;;;;;;;;;;;18.44;44.66;95855.16;6119299;19;1261;-67
2022/11/10 06:12:02;;;;;;;;;;;;;;;18.44;44.61;95857.81;6119591;19;974;-66
2022/11/10 06:14:05;;;;;;;;;;;;;;;18.45;44.37;95861.31;6096344;19;1197;-67
2022/11/10 06:16:09;;;;;;;;;;;;;;;18.46;44.49;95862.97;6119359;19;1397;-67
2022/11/10 06:18:12;;;;;;;;;;;;;;;18.47;44.98;95861.97;6119078;19;1225;-66
2022/11/10 06:20:16;;;;;;;;;;;;;;;18.47;44.67;95867.28;6118776;19;1357;-66
2022/11/10 06:22:19;;;;;;;;;;;;;;;18.48;44.80;95872.41;6117805;19;1842;-66
2022/11/10 06:24:23;;;;;;;;;;;;;;;18.48;44.77;95869.75;6097282;19;1408;-66
2022/11/10 06:26:26;;;;;;;;;;;;;;;18.50;44.61;95874.91;6118337;19;1113;-66
2022/11/10 06:28:32;;;;;;;;;;;;;;;18.49;44.53;95882.06;6119012;19;1489;-66
2022/11/10 06:30:36;;;;;;;;;;;;;;;18.49;44.61;95882.06;6116823;19;1053;-63
2022/11/10 06:32:43;;;;;;;;;;;;;;;18.50;44.40;95886.38;6117711;19;1242;-62
2022/11/10 06:34:46;;;;;;;;;;;;;;;18.50;44.56;95890.88;6118668;19;1061;-66
2022/11/10 06:36:50;;;;;;;;;;;;;;;18.51;44.74;95892.53;6095143;19;1402;-67
2022/11/10 06:38:53;;;;;;;;;;;;;;;18.49;44.27;95895.34;6118840;19;1512;-66
2022/11/10 06:40:56;;;;;;;;;;;;;;;18.50;44.07;95896.22;6118003;19;1053;-66
2022/11/10 06:43:00;;;;;;;;;;;;;;;18.49;44.33;95903.34;6117569;19;1860;-65
2022/11/10 06:45:06;;;;;;;;;;;;;;;18.49;44.20;95899.84;6117692;19;1012;-66
2022/11/10 06:47:10;;;;;;;;;;;;;;;18.49;44.09;95911.31;6096118;19;1265;-66
2022/11/10 06:49:13;;;;;;;;;;;;;;;18.49;44.23;95910.50;6117567;19;1056;-67
2022/11/10 06:51:17;;;;;;;;;;;;;;;18.48;43.82;95919.50;6117676;19;1013;-66
2022/11/10 06:53:20;;;;;;;;;;;;;;;18.49;43.81;95907.84;6118113;19;1084;-66
2022/11/10 06:55:24;;;;;;;;;;;;;;;18.50;44.17;95918.31;6118193;19;1030;-66
2022/11/10 06:57:27;;;;;;;;;;;;;;;18.49;43.76;95924.63;6118379;19;1021;-66
2022/11/10 06:59:30;;;;;;;;;;;;;;;18.48;43.76;95920.31;6094472;19;1317;-66
2022/11/10 07:01:36;;;;;;;;;;;;;;;18.49;43.78;95921.16;6117656;19;1025;-66
2022/11/10 07:03:39;;;;;;;;;;;;;;;18.50;43.96;95922.81;6117436;19;1849;-62
2022/11/10 07:05:43;;;;;;;;;;;;;;;18.51;44.24;95921.81;6117677;19;1109;-62
2022/11/10 07:07:46;;;;;;;;;;;;;;;18.51;43.99;95927.13;6117604;19;1124;-62
2022/11/10 07:09:50;;;;;;;;;;;;;;;18.51;44.12;95922.63;6096263;19;1309;-62
2022/11/10 07:11:53;;;;;;;;;;;;;;;18.51;44.42;95925.28;6117281;19;989;-67
2022/11/10 07:13:56;;;;;;;;;;;;;;;18.52;44.37;95926.13;6117559;19;1053;-64
2022/11/10 07:16:00;;;;;;;;;;;;;;;18.52;44.61;95916.31;6118208;19;1305;-62
2022/11/10 07:18:06;;;;;;;;;;;;;;;18.52;44.67;95926.97;6117646;19;1057;-66
2022/11/10 07:20:10;;;;;;;;;;;;;;;18.52;44.66;95926.97;6118384;19;1269;-65
2022/11/10 07:22:13;;;;;;;;;;;;;;;18.52;44.43;95932.28;6093413;19;1484;-65
2022/11/10 07:24:17;;;;;;;;;;;;;;;18.52;44.53;95924.31;6115433;19;1863;-65
2022/11/10 07:26:20;;;;;;;;;;;;;;;18.52;44.74;95926.13;6114248;19;1967;-64
2022/11/10 07:28:23;;;;;;;;;;;;;;;18.53;44.60;95928.63;6113469;19;1514;-64
2022/11/10 07:30:28;;;;;;;;;;;;;;;18.52;44.97;95926.97;6112938;19;1452;-64
2022/11/10 07:32:31;;;;;;;;;;;;;;;18.54;44.98;95932.09;6090926;19;1354;-67
2022/11/10 07:34:37;;;;;;;;;;;;;;;18.53;44.70;95931.28;6116730;19;1111;-66
2022/11/10 07:36:41;;;;;;;;;;;;;;;18.52;45.14;95928.78;6118012;19;1553;-64
2022/11/10 07:38:44;;;;;;;;;;;;;;;18.53;44.96;95933.13;6117712;19;1022;-63
2022/11/10 07:40:47;;;;;;;;;;;;;;;18.53;45.08;95933.13;6116921;19;992;-64
2022/11/10 07:42:51;;;;;;;;;;;;;;;18.53;45.21;95933.94;6121657;19;1837;-67
2022/11/10 07:44:54;;;;;;;;;;;;;;;18.54;45.15;95929.44;6097441;19;1330;-66
2022/11/10 07:46:57;;;;;;;;;;;;;;;18.52;45.08;95932.28;6123529;19;973;-67
2022/11/10 07:49:01;;;;;;;;;;;;;;;18.52;45.33;95924.31;6123559;19;1541;-66
2022/11/10 07:51:07;;;;;;;;;;;;;;;18.54;45.61;95927.59;6121901;19;1152;-67
2022/11/10 07:53:11;;;;;;;;;;;;;;;18.54;45.17;95926.78;6120834;19;1398;-67
2022/11/10 07:55:15;;;;;;;;;;;;;;;18.54;45.52;95930.25;6097382;19;1142;-67
2022/11/10 07:57:18;;;;;;;;;;;;;;;18.54;45.44;95919.63;6122731;19;1043;-68
2022/11/10 07:59:21;;;;;;;;;;;;;;;18.54;45.35;95927.59;6119953;19;1517;-67
2022/11/10 08:01:25;;;;;;;;;;;;;;;18.54;44.69;95932.09;6120830;19;1390;-67
2022/11/10 08:03:28;;;;;;;;;;;;;;;18.52;44.64;95926.97;6122161;19;1846;-67
2022/11/10 08:05:32;;;;;;;;;;;;;;;18.52;44.23;95924.31;6122024;19;1062;-67
2022/11/10 08:07:38;;;;;;;;;;;;;;;18.54;44.36;95919.63;6097043;19;1180;-67
2022/11/10 08:09:41;;;;;;;;;;;;;;;18.55;44.52;95928.41;6122413;19;1129;-67
2022/11/10 08:11:44;;;;;;;;;;;;;;;18.55;44.50;95925.75;6122531;19;1022;-67
2022/11/10 08:13:48;;;;;;;;;;;;;;;18.55;44.36;95917.78;6122037;19;1009;-66
2022/11/10 08:15:51;;;;;;;;;;;;;;;18.54;44.70;95927.59;6122478;19;1279;-67
2022/11/10 08:17:59;;;;;;;;;;;;;;;18.55;44.49;95920.44;6098309;19;1400;-66
2022/11/10 08:20:03;;;;;;;;;;;;;;;18.54;44.84;95927.59;6118938;19;1396;-67
2022/11/10 08:22:06;;;;;;;;;;;;;;;18.54;44.90;95924.09;6122062;19;1019;-67
2022/11/10 08:24:13;;;;;;;;;;;;;;;18.54;44.91;95927.59;6120753;19;1850;-66
2022/11/10 08:26:16;;;;;;;;;;;;;;;18.55;45.22;95921.28;6122094;19;1050;-67
2022/11/10 08:28:20;;;;;;;;;;;;;;;18.55;45.07;95928.41;6121218;19;1116;-66
2022/11/10 08:30:23;;;;;;;;;;;;;;;18.55;45.23;95921.28;6095637;19;1186;-67
2022/11/10 08:32:27;;;;;;;;;;;;;;;18.55;45.00;95921.28;6119775;19;1309;-67
2022/11/10 08:34:30;;;;;;;;;;;;;;;18.55;45.24;95931.09;6121545;19;1149;-67
2022/11/10 08:36:34;;;;;;;;;;;;;;;18.55;45.10;95937.25;6119880;19;1413;-67
2022/11/10 08:38:37;;;;;;;;;;;;;;;18.54;45.04;95940.91;6122257;19;1054;-67
2022/11/10 08:40:43;;;;;;;;;;;;;;;18.55;45.05;95934.59;6095891;19;1200;-67
2022/11/10 08:42:47;;;;;;;;;;;;;;;18.56;44.94;95943.41;6111488;19;3540;-87
2022/11/10 08:44:50;;;;;;;;;;;;;;;18.55;45.52;95931.94;6121834;19;1846;-88
2022/11/10 08:46:54;;;;;;;;;;;;;;;18.55;45.63;95931.94;6121548;19;1487;-86
2022/11/10 08:48:57;;;;;;;;;;;;;;;18.56;45.25;95935.41;6121821;19;1419;-90
2022/11/10 08:51:01;;;;;;;;;;;;;;;18.57;45.64;95938.91;6122015;19;1439;-91
2022/11/10 08:53:05;;;;;;;;;;;;;;;18.58;45.64;95935.22;6104179;19;1025;-89
2022/11/10 08:57:20;;;;;;;;;;;;;;;18.58;45.45;95938.75;6121626;19;739;-86
2022/11/10 08:59:23;;;;;;;;;;;;;;;18.59;45.30;95947.56;6121871;19;1031;-83
2022/11/10 09:01:27;;;;;;;;;;;;;;;18.58;45.48;95940.53;6119170;19;1416;-82
2022/11/10 09:03:30;;;;;;;;;;;;;;;18.59;45.28;95944.88;6099286;19;1861;-84
2022/11/10 09:05:34;;;;;;;;;;;;;;;18.59;45.35;95936.91;6117484;19;2151;-83
2022/11/10 09:07:44;;;;;;;;;;;;;;;18.59;45.46;95948.38;6122161;19;1498;-83
2022/11/10 09:09:49;;;;;;;;;;;;;;;18.60;45.50;95941.22;6118905;19;1596;-85
2022/11/10 09:11:53;;;;;;;;;;;;;;;18.60;45.50;95943.88;6120636;19;1049;-88
2022/11/10 09:13:59;;;;;;;;;;;;;;;18.60;45.58;95938.53;6107940;19;1561;-82
2022/11/10 09:16:03;;;;;;;;;;;;;;;18.51;45.79;95943.91;6122104;19;1828;-68
2022/11/10 09:18:09;;;;;;;;;;;;;;;18.15;42.73;95946.28;6120419;19;927;-68
2022/11/10 09:20:13;;;;;;;;;;;;;;;17.95;42.63;95947.69;6118475;19;1542;-68
2022/11/10 09:22:17;;;;;;;;;;;;;;;17.91;42.49;95938.41;6120586;19;1064;-68
2022/11/10 09:24:20;;;;;;;;;;;;;;;17.78;41.75;95946.91;6119698;19;1849;-68
2022/11/10 09:26:23;;;;;;;;;;;;;;;17.72;41.73;95944.91;6094595;19;1612;-68
2022/11/10 09:28:26;;;;;;;;;;;;;;;17.71;41.52;95938.78;6119117;19;1598;-68
2022/11/10 09:30:33;;;;;;;;;;;;;;;17.59;41.50;95937.50;6120745;19;1017;-68
2022/11/10 09:32:36;;;;;;;;;;;;;;;17.60;41.54;95937.31;6120706;19;1042;-68
2022/11/10 09:34:39;;;;;;;;;;;;;;;17.51;41.32;95933.03;6119718;19;1076;-68
2022/11/10 09:36:42;;;;;;;;;;;;;;;17.47;41.66;95929.06;6108247;19;1537;-68
2022/11/10 09:38:46;;;;;;;;;;;;;;;17.47;41.34;95926.41;6107560;19;1470;-68
2022/11/10 09:40:57;;;;;;;;;;;;;;;17.51;41.15;95933.03;6120515;19;985;-68
2022/11/10 09:43:02;;;;;;;;;;;;;;;17.56;41.69;95920.06;6119052;19;1053;-69
2022/11/10 09:45:07;;;;;;;;;;;;;;;17.72;42.29;95923.66;6118331;19;1838;-68
2022/11/10 09:47:16;;;;;;;;;;;;;;;17.86;42.64;95921.13;6120222;19;1557;-66
2022/11/10 09:49:27;;;;;;;;;;;;;;;17.96;42.42;95920.13;6093765;19;1453;-68
2022/11/10 09:51:33;;;;;;;;;;;;;;;18.03;42.60;95913.91;6120055;19;2041;-68
2022/11/10 09:53:38;;;;;;;;;;;;;;;18.08;42.82;95911.56;6119430;19;1061;-67
2022/11/10 09:55:44;;;;;;;;;;;;;;;18.11;42.83;95910.41;6120124;19;1020;-68
2022/11/10 09:57:48;;;;;;;;;;;;;;;18.14;42.71;95909.22;6119259;19;966;-68
2022/11/10 09:59:52;;;;;;;;;;;;;;;18.17;42.97;95916.84;6107075;19;1064;-69
2022/11/10 10:02:01;;;;;;;;;;;;;;;18.18;43.10;95906.06;6105187;19;1290;-69
2022/11/10 10:04:14;;;;;;;;;;;;;;;18.21;42.86;95907.50;6118272;19;1837;-68
2022/11/10 10:06:21;;;;;;;;;;;;;;;18.22;43.29;95909.19;6118274;19;1043;-69
2022/11/10 10:08:33;;;;;;;;;;;;;;;18.25;42.99;95914.16;6119750;19;1028;-69
2022/11/10 10:10:41;;;;;;;;;;;;;;;18.26;43.20;95913.13;6119345;19;989;-70
2022/11/10 10:12:51;;;;;;;;;;;;;;;18.27;43.21;95909.50;6092943;19;1480;-69
2022/11/10 10:15:12;;;;;;;;;;;;;;;18.28;43.16;95909.31;6117071;19;1406;-69
2022/11/10 10:17:20;;;;;;;;;;;;;;;18.30;43.13;95911.81;6118347;19;1135;-69
2022/11/10 10:19:30;;;;;;;;;;;;;;;18.30;43.36;95903.81;6118743;19;1088;-69
2022/11/10 10:21:45;;;;;;;;;;;;;;;18.31;43.63;95902.81;6119420;19;1522;-68
2022/11/10 10:23:52;;;;;;;;;;;;;;;18.33;43.72;95906.13;6092639;19;1849;-69
2022/11/10 10:25:55;;;;;;;;;;;;;;;18.33;43.61;95903.47;6118377;19;1231;-69
2022/11/10 10:28:01;;;;;;;;;;;;;;;18.32;43.93;95904.44;6119128;19;974;-68
2022/11/10 10:30:13;;;;;;;;;;;;;;;18.33;44.00;95903.47;6117404;19;1457;-68
2022/11/10 10:32:17;;;;;;;;;;;;;;;18.32;43.91;95899.13;6118940;19;1088;-68
2022/11/10 10:34:23;;;;;;;;;;;;;;;18.34;43.93;95902.44;6096652;19;1178;-67
2022/11/10 10:36:30;;;;;;;;;;;;;;;18.35;44.22;95898.78;6117257;19;1673;-68
2022/11/10 10:38:35;;;;;;;;;;;;;;;18.35;44.11;95893.44;6119037;19;1075;-67
2022/11/10 10:40:38;;;;;;;;;;;;;;;18.35;43.82;95888.13;6118003;19;1143;-69
2022/11/10 10:42:41;;;;;;;;;;;;;;;18.37;43.93;95903.94;6118865;19;966;-68
2022/11/10 10:45:13;;;;;;;;;;;;;;;18.36;44.40;95905.78;6117189;19;1849;-68
2022/11/10 10:47:16;;;;;;;;;;;;;;;18.37;44.42;95888.78;6105038;19;1215;-68
2022/11/10 10:49:21;;;;;;;;;;;;;;;18.37;44.33;95896.78;6117974;19;962;-68
2022/11/10 10:51:32;;;;;;;;;;;;;;;18.38;44.75;95893.13;6118610;19;973;-68
2022/11/10 10:53:46;;;;;;;;;;;;;;;18.39;44.50;95892.13;6118704;19;987;-68
2022/11/10 10:55:50;;;;;;;;;;;;;;;18.39;44.67;95884.13;6117141;19;1049;-68
2022/11/10 10:57:58;;;;;;;;;;;;;;;18.39;44.41;95881.47;6092268;19;1199;-68
2022/11/10 11:00:11;;;;;;;;;;;;;;;18.40;44.53;95880.47;6118189;19;1151;-67
2022/11/10 11:02:26;;;;;;;;;;;;;;;18.40;44.82;95876.97;6117377;19;1306;-68
2022/11/10 11:04:31;;;;;;;;;;;;;;;18.40;44.90;95877.78;6116953;19;1838;-68
2022/11/10 11:06:37;;;;;;;;;;;;;;;18.39;44.55;95870.81;6118115;19;1131;-67
2022/11/10 11:08:40;;;;;;;;;;;;;;;18.39;44.99;95876.16;6093139;19;1349;-68
2022/11/10 11:10:46;;;;;;;;;;;;;;;18.41;45.01;95875.97;6117274;19;1115;-67
2022/11/10 11:12:49;;;;;;;;;;;;;;;18.41;44.82;95871.47;6118117;19;1009;-68